4XCWZ LLHA-LLHA
Flight info
| Callsign | 4XCWZ |
|---|---|
| Flight time | 0h 8m |
| Altitude | 1000 |
| Route | CVFR |
| Aircraft | C172/L-VD/A |
Departure
| Time | 2026-04-25 14:56 |
|---|---|
| Airport | Uri Michaeli Haifa International Airport (LLHA) |
Arrival
| Time | 2026-04-25 15:04 |
|---|---|
| Airport | Uri Michaeli Haifa International Airport (LLHA) |
| Time | Latitude | Longitude | Altitude | Speed | Heading |
|---|---|---|---|---|---|
| 2026-04-25 14:43 | 32.81143 | 35.04135 | 19 ft | 0 kts | 140° |
| 2026-04-25 14:51 | 32.81135 | 35.04157 | 20 ft | 10 kts | 85° |
| 2026-04-25 14:52 | 32.81153 | 35.04224 | 21 ft | 0 kts | 73° |
| 2026-04-25 14:52 | 32.81164 | 35.04301 | 22 ft | 14 kts | 121° |
| 2026-04-25 14:52 | 32.81107 | 35.04334 | 21 ft | 20 kts | 160° |
| 2026-04-25 14:53 | 32.80865 | 35.04441 | 22 ft | 30 kts | 159° |
| 2026-04-25 14:53 | 32.80681 | 35.04507 | 21 ft | 25 kts | 162° |
| 2026-04-25 14:53 | 32.80602 | 35.04545 | 20 ft | 2 kts | 114° |
| 2026-04-25 14:53 | 32.80612 | 35.04552 | 20 ft | 5 kts | 343° |
| 2026-04-25 14:54 | 32.80619 | 35.04549 | 20 ft | 0 kts | 338° |
| 2026-04-25 14:54 | 32.80685 | 35.04520 | 21 ft | 5 kts | 340° |
| 2026-04-25 14:54 | 32.80686 | 35.04520 | 21 ft | 0 kts | 340° |
| 2026-04-25 14:55 | 32.80839 | 35.04453 | 21 ft | 47 kts | 339° |
| 2026-04-25 14:55 | 32.81276 | 35.04262 | 24 ft | 84 kts | 340° |
| 2026-04-25 14:55 | 32.81851 | 35.04011 | 165 ft | 92 kts | 341° |
| 2026-04-25 14:55 | 32.82483 | 35.04072 | 416 ft | 98 kts | 23° |
| 2026-04-25 14:56 | 32.82845 | 35.04707 | 733 ft | 102 kts | 97° |
| 2026-04-25 14:56 | 32.82351 | 35.05354 | 762 ft | 119 kts | 150° |
| 2026-04-25 14:56 | 32.81586 | 35.05855 | 746 ft | 130 kts | 155° |
| 2026-04-25 14:56 | 32.80754 | 35.06342 | 706 ft | 135 kts | 152° |
| 2026-04-25 14:57 | 32.79948 | 35.06958 | 580 ft | 141 kts | 147° |
| 2026-04-25 14:57 | 32.79049 | 35.07372 | 536 ft | 136 kts | 190° |
| 2026-04-25 14:57 | 32.78299 | 35.06837 | 531 ft | 134 kts | 225° |
| 2026-04-25 14:57 | 32.77922 | 35.05969 | 597 ft | 92 kts | 290° |
| 2026-04-25 14:58 | 32.78285 | 35.05558 | 645 ft | 68 kts | 322° |
| 2026-04-25 14:58 | 32.78714 | 35.05298 | 529 ft | 70 kts | 337° |
| 2026-04-25 14:58 | 32.79150 | 35.05099 | 391 ft | 65 kts | 337° |
| 2026-04-25 14:58 | 32.79571 | 35.04946 | 242 ft | 64 kts | 344° |
| 2026-04-25 14:59 | 32.79980 | 35.04795 | 139 ft | 59 kts | 337° |
| 2026-04-25 14:59 | 32.80361 | 35.04658 | 46 ft | 60 kts | 335° |
| 2026-04-25 14:59 | 32.80727 | 35.04498 | 21 ft | 53 kts | 331° |
| 2026-04-25 14:59 | 32.81184 | 35.04303 | 23 ft | 86 kts | 340° |
| 2026-04-25 15:00 | 32.81790 | 35.04064 | 164 ft | 95 kts | 338° |
| 2026-04-25 15:00 | 32.82487 | 35.04035 | 293 ft | 106 kts | 27° |
| 2026-04-25 15:00 | 32.82949 | 35.04633 | 634 ft | 103 kts | 73° |
| 2026-04-25 15:00 | 32.82628 | 35.05375 | 744 ft | 113 kts | 148° |
| 2026-04-25 15:01 | 32.81899 | 35.05867 | 756 ft | 125 kts | 158° |
| 2026-04-25 15:01 | 32.81115 | 35.06245 | 894 ft | 125 kts | 161° |
| 2026-04-25 15:01 | 32.80279 | 35.06616 | 852 ft | 131 kts | 163° |
| 2026-04-25 15:01 | 32.79553 | 35.07264 | 536 ft | 147 kts | 124° |
| 2026-04-25 15:02 | 32.78800 | 35.07858 | 710 ft | 121 kts | 198° |
| 2026-04-25 15:02 | 32.78217 | 35.07171 | 647 ft | 124 kts | 244° |
| 2026-04-25 15:02 | 32.77965 | 35.06229 | 458 ft | 118 kts | 269° |
| 2026-04-25 15:02 | 32.78089 | 35.05734 | 672 ft | 73 kts | 311° |
| 2026-04-25 15:03 | 32.78692 | 35.05360 | 557 ft | 74 kts | 336° |
| 2026-04-25 15:03 | 32.79170 | 35.05140 | 432 ft | 75 kts | 339° |
| 2026-04-25 15:03 | 32.79662 | 35.04949 | 279 ft | 76 kts | 339° |
| 2026-04-25 15:03 | 32.80181 | 35.04738 | 121 ft | 81 kts | 338° |
| 2026-04-25 15:04 | 32.80669 | 35.04532 | 25 ft | 65 kts | 335° |
| 2026-04-25 15:04 | 32.81059 | 35.04358 | 21 ft | 65 kts | 338° |
| 2026-04-25 15:04 | 32.81380 | 35.04217 | 24 ft | 25 kts | 335° |
| 2026-04-25 15:04 | 32.81401 | 35.04161 | 24 ft | 3 kts | 240° |
| 2026-04-25 15:05 | 32.81342 | 35.04188 | 23 ft | 13 kts | 176° |
| 2026-04-25 15:05 | 32.81303 | 35.04166 | 21 ft | 2 kts | 143° |
| 2026-04-25 15:05 | 32.81298 | 35.04179 | 22 ft | 0 kts | 84° |